ADDS TAF Board (Experimental) INFO Settings
IDs: Format: Expanded Condensed

KSFO - San Francisco Intl, CA, US

Issued at 0718 UTC 06 May 2016
Updated at: 0727 UTC 06 May 2016
Time0656Z 06/08Z 06/09Z 06/10Z 06/11Z 06/12Z 06/13Z 06/14Z 06/15Z 06/16Z 06/17Z 06/18Z 06/19Z 06/20Z
Type OBS PRVL PRVL PRVL PRVL PRVL PRVL PRVL PRVL PRVL PRVL PRVL PRVL PRVL
VIS 10 >6 >6 >6 >6 >6 >6 >6 >6 >6 >6 >6 >6 >6
CIG 11 11 11 11 11 15 15 15 15 25 25 25 25 25
Cover BKN BKN BKN BKN BKN BKN BKN BKN BKN OVC OVC OVC OVC OVC
FltCat MVFR MVFR MVFR MVFR MVFR MVFR MVFR MVFR MVFR MVFR MVFR MVFR MVFR MVFR
WX -- -- -- -- -- -- -- -- -- -SHRA -SHRA -SHRA -SHRA -SHRA
WDir 270 270 270 270 270 250 250 250 250 230 230 230 230 230
WSpd 14 14 14 14 14 7 7 7 7 8 8 8 8 8
WGst -- -- -- -- -- -- -- -- -- -- -- -- -- --
R01/19
XWnd 12 12 12 12 12 5 5 5 5 3 3 3 3 3
HWnd -6 -6 -6 -6 -6 -5 -5 -5 -5 -7 -7 -7 -7 -7
R10/28
XWnd -6 -6 -6 -6 -6 -5 -5 -5 -5 -7 -7 -7 -7 -7
HWnd -12 -12 -12 -12 -12 -5 -5 -5 -5 -3 -3 -3 -3 -3

NOTE: TEMPO conditions in [brackets]. Keep in mind TEMPO conditions might be better (lower impact) than prevailing conditions.

Raw TAF
KSFO 060718Z 0607/0712 27014KT P6SM FEW009 BKN011
  FM061200 25007KT P6SM BKN015
  FM061600 23008KT P6SM -SHRA BKN025 OVC040
  FM062100 22008KT P6SM VCSH OVC025
  FM070300 25010KT P6SM BKN050


Raw METAR
KSFO 060656Z 27014KT 10SM FEW009 BKN011 13/13 A2987 RMK AO2 SLP115 T01330133
KSFO 060556Z 29009KT 10SM FEW010 FEW100 14/13 A2987 RMK AO2 SLP116 T01390128 10183 20139 51004
KSFO 060456Z 27009KT 10SM FEW010 SCT180 14/13 A2987 RMK AO2 SLP116 T01390128

METAR Board
Radar Display
Forecast Discussion

TAF Board Legend

Potential Impact
Threat None Slight Moderate High
Visibility (sm) ≥5.1 5.1>X≥3 3>X≥1 <1
Ceiling (100 ft) ≥30.1 30.1>X≥10 10>X≥5 <5
Wind Speed (kt) <10 10≤X<20 20≤X<30 ≥30
Wind Gust (kt) <15 15≤X<25 25≤X<35 ≥35
Weather No Wx Reported VCTS,-TS,-FZRA,SN TS,FZRA +TS,+FZRA,+SN